createdAt,value
2018-07-08T00:06:56.718Z,1016.82
2018-07-08T00:16:56.692Z,1016.7
2018-07-08T00:26:56.746Z,1016.67
2018-07-08T00:36:56.700Z,1016.69
2018-07-08T00:46:56.664Z,1016.67
2018-07-08T00:56:56.745Z,1016.74
2018-07-08T01:06:56.698Z,1016.75
2018-07-08T01:16:56.770Z,1016.85
2018-07-08T01:26:56.709Z,1016.94
2018-07-08T01:36:56.767Z,1016.99
2018-07-08T01:46:56.742Z,1017.07
2018-07-08T01:56:56.784Z,1017.08
2018-07-08T02:06:56.775Z,1017.09
2018-07-08T02:16:56.816Z,1017.06
2018-07-08T02:26:56.784Z,1017.11
2018-07-08T02:36:56.844Z,1017.04
2018-07-08T02:46:56.796Z,1017.08
2018-07-08T02:56:56.856Z,1017.14
2018-07-08T03:06:56.819Z,1017.29
2018-07-08T03:16:56.899Z,1017.31
2018-07-08T03:26:57.890Z,1017.33
2018-07-08T03:36:56.862Z,1017.38
2018-07-08T03:46:56.895Z,1017.4
2018-07-08T03:56:56.830Z,1017.43
2018-07-08T04:06:56.902Z,1017.47
2018-07-08T04:16:56.972Z,1017.44
2018-07-08T04:26:56.924Z,1017.39
2018-07-08T04:36:56.904Z,1017.49
2018-07-08T04:46:56.953Z,1017.6
2018-07-08T04:56:56.920Z,1017.61
2018-07-08T05:06:57.009Z,1017.65
2018-07-08T05:16:56.930Z,1017.75
2018-07-08T05:26:56.889Z,1017.85
2018-07-08T05:36:56.963Z,1017.92
2018-07-08T05:46:57.014Z,1017.88
2018-07-08T05:56:56.987Z,1017.96
2018-07-08T06:06:57.030Z,1018.38
2018-07-08T06:16:57.072Z,1017.94
2018-07-08T06:26:57.073Z,1017.74
2018-07-08T06:36:57.153Z,1017.66
2018-07-08T06:46:56.986Z,1017.47
2018-07-08T06:56:57.058Z,1017.48
2018-07-08T07:06:57.004Z,1017.55
2018-07-08T07:16:56.976Z,1017.48
2018-07-08T07:26:57.041Z,1017.48
2018-07-08T07:36:57.042Z,1017.43
2018-07-08T07:46:57.103Z,1017.36
2018-07-08T07:56:57.031Z,1017.37
2018-07-08T08:06:57.097Z,1017.45
2018-07-08T08:16:57.039Z,1017.47
2018-07-08T08:26:57.099Z,1017.52
2018-07-08T08:36:57.076Z,1017.51
2018-07-08T08:46:57.022Z,1017.4
2018-07-08T08:56:57.105Z,1017.33
2018-07-08T09:06:57.132Z,1017.18
2018-07-08T09:16:57.034Z,1017.26
2018-07-08T09:26:57.035Z,1017.16
2018-07-08T09:36:57.103Z,1017.2
2018-07-08T09:46:57.119Z,1017.23
2018-07-08T09:56:57.124Z,1017.25
2018-07-08T10:06:57.100Z,1017.2
2018-07-08T10:16:57.049Z,1017.14
2018-07-08T10:26:57.118Z,1017.11
2018-07-08T10:36:57.081Z,1017.11
2018-07-08T10:46:57.143Z,1017.11
2018-07-08T10:56:57.106Z,1017.08
2018-07-08T11:06:57.075Z,1016.97
2018-07-08T11:16:57.124Z,1016.95
2018-07-08T11:26:57.084Z,1016.79
2018-07-08T11:36:57.138Z,1016.68
2018-07-08T11:46:57.097Z,1016.74
2018-07-08T11:56:57.070Z,1016.71
2018-07-08T12:07:01.729Z,1016.56
2018-07-08T12:16:57.087Z,1016.66
2018-07-08T12:26:57.149Z,1016.52
2018-07-08T12:36:57.071Z,1016.5
2018-07-08T12:46:57.132Z,1016.42
2018-07-08T12:56:57.166Z,1016.36
2018-07-08T13:06:57.122Z,1016.33
2018-07-08T13:16:57.089Z,1016.35
2018-07-08T13:26:57.155Z,1016.27
2018-07-08T13:36:57.103Z,1016.33
2018-07-08T13:46:57.176Z,1016.29
2018-07-08T13:56:57.121Z,1016.18
2018-07-08T14:06:57.080Z,1016.31
2018-07-08T14:16:57.196Z,1016.16
2018-07-08T14:26:57.086Z,1016.08
2018-07-08T14:36:57.134Z,1016.01
2018-07-08T14:46:57.098Z,1015.96
2018-07-08T14:56:57.133Z,1015.91
2018-07-08T15:06:57.148Z,1015.89
2018-07-08T15:16:57.128Z,1015.85
2018-07-08T15:26:57.180Z,1015.91
2018-07-08T15:37:01.586Z,1015.87
2018-07-08T15:47:08.996Z,1015.88
2018-07-08T15:56:57.174Z,1015.8
2018-07-08T16:06:57.149Z,1015.73
2018-07-08T16:16:57.213Z,1015.75
2018-07-08T16:26:57.082Z,1015.64
2018-07-08T16:36:57.114Z,1015.6
2018-07-08T16:46:57.545Z,1015.56
2018-07-08T16:56:57.201Z,1015.53
2018-07-08T17:06:57.832Z,1015.55
2018-07-08T17:16:57.354Z,1015.53
2018-07-08T17:26:57.189Z,1015.47
2018-07-08T17:36:57.127Z,1015.42
2018-07-08T17:46:57.129Z,1015.42
2018-07-08T17:56:57.104Z,1015.47
2018-07-08T18:06:57.134Z,1015.47
2018-07-08T18:16:57.182Z,1015.48
2018-07-08T18:26:57.152Z,1015.57
2018-07-08T18:36:57.122Z,1015.58
2018-07-08T18:46:57.152Z,1015.61
2018-07-08T18:56:57.138Z,1015.64
2018-07-08T19:06:57.251Z,1015.71
2018-07-08T19:16:57.151Z,1015.64
2018-07-08T19:26:57.184Z,1015.66
2018-07-08T19:36:57.133Z,1015.79
2018-07-08T19:46:57.144Z,1015.85
2018-07-08T19:56:57.144Z,1015.97
2018-07-08T20:06:57.161Z,1016.03
2018-07-08T20:16:57.138Z,1016.02
2018-07-08T20:26:57.153Z,1016.06
2018-07-08T20:36:57.222Z,1016.18
2018-07-08T20:46:57.351Z,1016.29
2018-07-08T20:56:57.263Z,1016.41
2018-07-08T21:06:57.135Z,1016.3
2018-07-08T21:16:57.187Z,1016.39
2018-07-08T21:26:57.173Z,1016.47
2018-07-08T21:36:57.258Z,1016.44
2018-07-08T21:46:57.179Z,1016.43
2018-07-08T21:56:58.165Z,1016.39
2018-07-08T22:06:58.255Z,1016.51
2018-07-08T22:16:57.245Z,1016.49
2018-07-08T22:26:57.136Z,1016.49
2018-07-08T22:36:58.890Z,1016.49
2018-07-08T22:46:59.339Z,1016.46
2018-07-08T22:56:57.189Z,1016.52
2018-07-08T23:06:57.465Z,1016.55
2018-07-08T23:16:57.206Z,1016.46
2018-07-08T23:26:57.164Z,1016.48
2018-07-08T23:36:57.253Z,1016.45
2018-07-08T23:46:57.195Z,1016.52
2018-07-08T23:56:57.167Z,1016.5
